Time;durP1;ratioP1;P1;durP2;ratioP2;P2;SDS_P1;SDS_P2;PMS_P1;PMS_P2;Temp;Humidity;BMP_temperature;BMP_pressure;BME280_temperature;BME280_humidity;BME280_pressure;Samples;Min_cycle;Max_cycle;Signal;HPM_P1;HPM_P2
2023/06/02 00:09:58;;;;;;;7.25;6.47;;;;;;;26.75;36.49;101471.66;21087430;28;20467;-63
2023/06/02 00:20:00;;;;;;;7.07;6.20;;;;;;;26.79;36.92;101478.31;21087874;28;20051;-61
2023/06/02 00:30:02;;;;;;;8.00;6.70;;;;;;;26.78;36.91;101475.81;21087998;28;20475;-62
2023/06/02 00:40:04;;;;;;;8.25;6.75;;;;;;;26.80;36.91;101487.56;21085386;28;20040;-60
2023/06/02 00:50:07;;;;;;;9.82;7.60;;;;;;;26.81;37.15;101492.91;21086050;28;20040;-62
2023/06/02 01:00:11;;;;;;;7.95;7.00;;;;;;;26.81;37.05;101504.13;21084645;28;20186;-62
2023/06/02 01:10:15;;;;;;;8.25;6.90;;;;;;;26.83;37.23;101507.44;21083656;28;20337;-62
2023/06/02 01:20:21;;;;;;;8.82;7.47;;;;;;;26.73;37.42;101496.41;21082169;28;20036;-62
2023/06/02 01:30:26;;;;;;;7.68;6.60;;;;;;;26.83;37.38;101524.31;21081438;28;20089;-62
2023/06/02 01:40:29;;;;;;;7.45;6.20;;;;;;;26.85;37.43;101532.44;21081098;28;20040;-63
2023/06/02 01:50:32;;;;;;;7.60;6.70;;;;;;;26.87;37.42;101547.00;21079289;28;20048;-62
2023/06/02 02:00:36;;;;;;;9.18;7.25;;;;;;;26.84;37.68;101547.59;21079456;28;20047;-62
2023/06/02 02:10:38;;;;;;;8.15;6.80;;;;;;;26.86;37.57;101546.16;21078576;28;20109;-62
2023/06/02 02:20:40;;;;;;;8.98;6.68;;;;;;;26.82;37.55;101542.28;21078402;28;20449;-62
2023/06/02 02:30:42;;;;;;;8.20;6.65;;;;;;;26.86;37.78;101543.34;21077472;28;20097;-62
2023/06/02 02:40:43;;;;;;;7.82;7.03;;;;;;;26.88;37.86;101533.78;21077151;28;20387;-61
2023/06/02 02:50:44;;;;;;;9.20;7.20;;;;;;;26.82;38.07;101516.19;21078037;28;20464;-62
2023/06/02 03:00:46;;;;;;;8.77;6.93;;;;;;;26.89;37.75;101521.41;21078926;28;20036;-62
2023/06/02 03:10:47;;;;;;;7.88;6.53;;;;;;;26.89;37.72;101519.41;21093758;28;20069;-63
2023/06/02 03:20:49;;;;;;;8.82;6.60;;;;;;;26.84;37.95;101514.72;21093360;28;20040;-62
2023/06/02 03:30:50;;;;;;;7.50;6.28;;;;;;;26.89;38.08;101527.00;21091322;28;20044;-62
2023/06/02 03:40:52;;;;;;;8.95;6.38;;;;;;;26.89;38.03;101512.97;21090583;28;20047;-61
2023/06/02 03:50:57;;;;;;;7.35;6.57;;;;;;;26.89;38.11;101527.84;21089616;28;20040;-61
2023/06/02 04:00:59;;;;;;;6.68;5.53;;;;;;;26.91;37.96;101530.38;21089644;28;20036;-61
2023/06/02 04:11:00;;;;;;;6.60;5.90;;;;;;;26.87;38.23;101518.91;21088712;28;20094;-63
2023/06/02 04:21:02;;;;;;;7.03;6.13;;;;;;;26.81;38.21;101498.53;21087184;28;20054;-62
2023/06/02 04:31:05;;;;;;;7.05;5.72;;;;;;;26.90;38.38;101501.44;21086784;28;20471;-62
2023/06/02 04:41:07;;;;;;;7.75;5.60;;;;;;;26.85;38.39;101499.56;21085808;28;20040;-62
2023/06/02 04:51:08;;;;;;;8.02;5.40;;;;;;;26.86;38.35;101504.03;21084882;28;20051;-62
2023/06/02 05:01:10;;;;;;;7.35;5.85;;;;;;;26.89;38.48;101493.31;21084351;28;20056;-62
2023/06/02 05:11:11;;;;;;;6.93;5.47;;;;;;;26.80;38.37;101474.41;21083275;28;20048;-62
2023/06/02 05:21:13;;;;;;;5.82;4.88;;;;;;;26.89;38.43;101479.28;21082932;28;20040;-62
2023/06/02 05:31:14;;;;;;;5.78;5.15;;;;;;;26.88;38.54;101455.16;21081129;28;20040;-62
2023/06/02 05:41:15;;;;;;;5.80;4.88;;;;;;;26.89;38.76;101451.19;21080904;28;20043;-62
2023/06/02 05:51:17;;;;;;;7.18;5.03;;;;;;;26.89;38.57;101442.78;21080457;28;20044;-62
2023/06/02 06:01:18;;;;;;;5.05;4.55;;;;;;;26.81;38.45;101425.50;21079838;28;20536;-62
2023/06/02 06:11:21;;;;;;;7.00;5.30;;;;;;;26.89;38.74;101420.31;21079270;28;20040;-63
2023/06/02 06:21:23;;;;;;;5.82;4.82;;;;;;;26.85;38.49;101401.28;21075262;28;20036;-63
2023/06/02 06:31:27;;;;;;;5.18;4.68;;;;;;;26.88;38.42;101390.56;21077549;28;20393;-62
2023/06/02 06:41:29;;;;;;;5.75;4.53;;;;;;;26.79;38.52;101370.78;21076663;28;20044;-62
2023/06/02 06:51:30;;;;;;;5.70;4.60;;;;;;;26.83;38.56;101377.47;21075884;28;20113;-62
2023/06/02 07:01:33;;;;;;;5.82;4.35;;;;;;;26.86;38.69;101374.88;21075390;28;20514;-62
2023/06/02 07:11:35;;;;;;;6.35;5.07;;;;;;;26.74;38.67;101334.41;21075400;28;20074;-62
2023/06/02 07:21:38;;;;;;;4.63;4.15;;;;;;;26.85;38.67;101347.94;21075408;28;20172;-62
2023/06/02 07:31:49;;;;;;;4.68;4.28;;;;;;;26.84;38.72;101340.63;21075013;28;20044;-63
2023/06/02 07:41:51;;;;;;;5.13;4.20;;;;;;;26.85;38.91;101336.72;21074586;28;20044;-62
2023/06/02 07:51:52;;;;;;;4.82;3.95;;;;;;;26.84;38.77;101335.00;21082017;28;20164;-62
2023/06/02 08:01:53;;;;;;;5.25;4.30;;;;;;;26.84;38.82;101328.56;21089064;28;20055;-62
2023/06/02 08:11:55;;;;;;;5.00;4.05;;;;;;;26.84;38.99;101329.41;21088022;28;20043;-62
2023/06/02 08:21:57;;;;;;;4.10;3.40;;;;;;;26.83;39.11;101310.91;21086718;28;20051;-62
2023/06/02 08:31:58;;;;;;;6.35;4.43;;;;;;;26.82;38.86;101300.81;21086832;28;20040;-62
2023/06/02 08:42:01;;;;;;;4.35;3.80;;;;;;;26.75;38.90;101291.97;21085798;28;20065;-62
2023/06/02 08:52:10;;;;;;;5.30;4.18;;;;;;;26.81;39.16;101295.53;21084514;28;20388;-62
2023/06/02 09:02:11;;;;;;;4.72;4.22;;;;;;;26.77;39.31;101288.88;21084251;28;20078;-62
2023/06/02 09:12:14;;;;;;;4.75;3.88;;;;;;;26.80;39.14;101289.09;21083349;28;20093;-62
2023/06/02 09:22:16;;;;;;;5.05;3.53;;;;;;;26.81;39.23;101295.53;21082584;28;20101;-62
2023/06/02 09:32:18;;;;;;;3.75;3.35;;;;;;;26.80;39.28;101289.09;21082259;28;20074;-62
2023/06/02 09:42:23;;;;;;;4.70;3.63;;;;;;;26.79;39.27;101293.00;21080899;28;20035;-62
2023/06/02 09:52:24;;;;;;;3.70;3.30;;;;;;;26.78;39.22;101287.72;21080815;28;20094;-62
2023/06/02 10:02:26;;;;;;;4.65;3.72;;;;;;;26.77;39.45;101292.50;21079866;28;20043;-62
2023/06/02 10:12:37;;;;;;;5.18;3.95;;;;;;;26.75;39.61;101277.94;21078644;28;20043;-62
2023/06/02 10:22:47;;;;;;;3.97;3.58;;;;;;;26.75;39.25;101296.75;21078572;28;20043;-62
2023/06/02 10:32:50;;;;;;;5.72;3.88;;;;;;;26.75;39.68;101302.38;21077682;28;20044;-62
2023/06/02 10:43:11;;;;;;;5.65;3.97;;;;;;;26.66;39.77;101302.25;21076926;28;20073;-62
2023/06/02 10:53:13;;;;;;;5.15;3.55;;;;;;;26.72;39.61;101297.41;21076050;28;20051;-61
2023/06/02 11:03:17;;;;;;;4.40;3.67;;;;;;;26.71;39.70;101290.97;21075785;28;20044;-62
2023/06/02 11:13:50;;;;;;;5.43;3.72;;;;;;;26.60;39.74;101278.25;21075609;28;20044;-62
2023/06/02 11:23:52;;;;;;;4.90;3.60;;;;;;;26.67;39.74;101289.91;21080709;28;20467;-62
2023/06/02 11:33:54;;;;;;;4.05;3.47;;;;;;;26.65;39.58;101275.34;21091674;28;20040;-62
2023/06/02 11:44:10;;;;;;;4.03;3.63;;;;;;;26.62;39.88;101276.00;21091345;28;20062;-61
2023/06/02 11:54:13;;;;;;;3.70;3.40;;;;;;;26.75;39.54;101293.94;21089747;28;20047;-61
2023/06/02 12:04:15;;;;;;;4.70;3.63;;;;;;;26.76;39.73;101299.28;21089006;28;20479;-61
2023/06/02 12:14:16;;;;;;;4.07;3.67;;;;;;;26.77;39.67;101294.47;21087990;28;20105;-62
2023/06/02 12:24:36;;;;;;;4.88;3.60;;;;;;;26.71;39.64;101285.34;21085797;28;20036;-62
2023/06/02 12:34:40;;;;;;;3.95;3.30;;;;;;;26.75;39.69;101280.75;21085178;28;20552;-62
2023/06/02 12:44:42;;;;;;;3.92;3.40;;;;;;;26.75;39.88;101291.13;21085741;28;20540;-62
2023/06/02 12:54:43;;;;;;;4.18;3.70;;;;;;;26.77;39.69;101291.69;21084753;28;20105;-61
2023/06/02 13:04:44;;;;;;;3.80;3.40;;;;;;;26.76;39.67;101285.22;21083284;28;20444;-61
2023/06/02 13:14:46;;;;;;;3.95;3.42;;;;;;;26.80;39.64;101274.19;21082380;28;20184;-62
2023/06/02 13:24:47;;;;;;;4.15;3.75;;;;;;;26.84;39.46;101266.81;21082767;28;20032;-61
2023/06/02 13:34:56;;;;;;;3.70;3.30;;;;;;;26.82;39.71;101253.09;21081791;28;20028;-62
2023/06/02 13:44:58;;;;;;;4.38;3.60;;;;;;;26.86;39.77;101242.88;21080151;28;20040;-61
2023/06/02 13:54:59;;;;;;;5.10;3.70;;;;;;;26.91;39.38;101227.91;21080089;28;20044;-62
2023/06/02 14:05:01;;;;;;;6.35;3.67;;;;;;;26.95;39.49;101211.25;21079220;28;20039;-62
2023/06/02 14:15:03;;;;;;;3.95;3.55;;;;;;;26.93;39.37;101179.84;21078681;28;20047;-62
2023/06/02 14:25:04;;;;;;;4.95;4.05;;;;;;;27.04;39.09;101181.28;21077825;28;20151;-61
2023/06/02 14:35:06;;;;;;;4.38;3.95;;;;;;;27.05;38.94;101182.94;21077340;28;20554;-62
2023/06/02 14:45:08;;;;;;;5.25;4.43;;;;;;;27.04;39.10;101170.88;21076866;28;20039;-62
2023/06/02 14:55:09;;;;;;;4.55;4.15;;;;;;;27.15;39.11;101196.75;21076112;28;20052;-61
2023/06/02 15:05:11;;;;;;;5.28;4.78;;;;;;;27.19;39.31;101194.16;21075016;28;20488;-61
2023/06/02 15:15:12;;;;;;;6.97;5.32;;;;;;;27.21;39.07;101192.66;21075966;28;20044;-62
2023/06/02 15:25:14;;;;;;;9.15;5.57;;;;;;;27.26;38.92;101189.75;21075437;28;20028;-62
2023/06/02 15:35:15;;;;;;;7.90;6.32;;;;;;;27.30;38.81;101185.13;21074941;28;20040;-62
2023/06/02 15:45:16;;;;;;;7.93;6.30;;;;;;;27.31;38.61;101181.22;21074977;28;20105;-62
2023/06/02 15:55:18;;;;;;;10.90;7.07;;;;;;;27.17;38.89;101141.09;21073831;28;20479;-62
2023/06/02 16:05:20;;;;;;;7.65;6.55;;;;;;;27.36;38.62;101161.41;21073878;28;20444;-62
2023/06/02 16:15:21;;;;;;;11.20;7.25;;;;;;;27.42;38.60;101159.28;21084190;28;20044;-62
2023/06/02 16:25:23;;;;;;;8.30;7.07;;;;;;;27.43;38.68;101154.50;21087869;28;20024;-62
2023/06/02 16:35:25;;;;;;;9.27;7.68;;;;;;;27.48;38.61;101140.31;21086722;28;20048;-62
2023/06/02 16:45:26;;;;;;;8.63;7.65;;;;;;;27.48;38.61;101123.44;21086139;28;20062;-62
2023/06/02 16:55:27;;;;;;;9.93;7.78;;;;;;;27.51;38.42;101105.94;21084711;28;20044;-62
2023/06/02 17:05:29;;;;;;;8.70;6.97;;;;;;;27.52;38.75;101091.56;21084389;28;20048;-60
2023/06/02 17:15:33;;;;;;;8.07;7.28;;;;;;;27.54;38.33;101085.63;21083554;28;20036;-63
2023/06/02 17:25:35;;;;;;;9.43;7.47;;;;;;;27.59;38.47;101079.88;21083485;28;20028;-61
2023/06/02 17:35:36;;;;;;;8.68;7.43;;;;;;;27.63;38.26;101069.63;21082221;28;20101;-61
2023/06/02 17:45:37;;;;;;;10.55;7.88;;;;;;;27.64;38.15;101057.25;21080318;28;20097;-61
2023/06/02 17:55:40;;;;;;;9.27;7.65;;;;;;;27.64;38.26;101039.53;21080137;28;20040;-62
2023/06/02 18:05:43;;;;;;;10.57;7.78;;;;;;;27.71;38.43;101043.53;21079484;28;20048;-62
2023/06/02 18:15:45;;;;;;;9.27;7.50;;;;;;;27.77;38.49;101036.66;21057929;28;20117;-63
2023/06/02 18:25:47;;;;;;;9.00;8.10;;;;;;;27.65;37.94;100993.41;21077737;28;20471;-63
2023/06/02 18:35:48;;;;;;;8.57;7.65;;;;;;;27.84;37.92;100980.75;21075211;28;20044;-63
2023/06/02 18:45:52;;;;;;;9.20;7.82;;;;;;;27.83;38.22;100972.66;21075878;28;20180;-63
2023/06/02 18:55:54;;;;;;;9.07;8.07;;;;;;;27.85;38.22;100959.06;21075674;28;20120;-63
2023/06/02 19:05:55;;;;;;;8.43;7.57;;;;;;;27.81;38.19;100930.81;21070547;28;20097;-62
2023/06/02 19:15:57;;;;;;;9.68;7.28;;;;;;;27.91;38.51;100935.28;21062260;28;20048;-64
2023/06/02 19:25:58;;;;;;;9.30;8.07;;;;;;;27.91;38.31;100914.78;21075223;28;20552;-64
2023/06/02 19:35:59;;;;;;;9.52;7.93;;;;;;;27.87;38.35;100883.66;21071201;28;20044;-63
2023/06/02 19:46:04;;;;;;;9.38;8.13;;;;;;;27.93;38.44;100875.88;21079669;28;20428;-63
2023/06/02 19:56:08;;;;;;;11.27;8.52;;;;;;;27.95;38.19;100863.16;21086658;28;20051;-62
2023/06/02 20:06:10;;;;;;;8.65;7.85;;;;;;;27.97;38.46;100848.75;21087711;28;20044;-63
2023/06/02 20:16:16;;;;;;;11.18;8.35;;;;;;;27.99;38.19;100830.38;21086579;28;20039;-63
2023/06/02 20:26:17;;;;;;;8.82;7.70;;;;;;;27.96;38.36;100817.00;21087334;28;20055;-62
2023/06/02 20:36:19;;;;;;;9.23;8.32;;;;;;;28.00;38.38;100826.41;21058954;28;20059;-63
2023/06/02 20:46:21;;;;;;;12.07;7.80;;;;;;;27.98;38.56;100819.47;21072089;28;20036;-62
2023/06/02 20:56:25;;;;;;;10.00;7.90;;;;;;;28.01;38.47;100832.88;21071834;28;20082;-63
2023/06/02 21:06:29;;;;;;;11.15;7.60;;;;;;;27.99;38.77;100818.28;21054384;28;20036;-62
2023/06/02 21:16:32;;;;;;;11.90;7.80;;;;;;;28.01;38.54;100830.88;21045073;28;20105;-62
2023/06/02 21:26:33;;;;;;;9.85;7.80;;;;;;;27.54;38.98;100735.13;21068164;28;20036;-62
2023/06/02 21:36:35;;;;;;;10.98;8.38;;;;;;;28.04;38.81;100812.50;21081445;28;20490;-63
2023/06/02 21:46:36;;;;;;;8.90;7.60;;;;;;;28.05;38.87;100800.09;21079633;28;20043;-63
2023/06/02 21:56:38;;;;;;;8.27;7.47;;;;;;;28.06;38.88;100779.25;21078774;28;20029;-62
2023/06/02 22:06:39;;;;;;;7.97;7.18;;;;;;;28.03;38.99;100769.47;21078893;28;20085;-62
2023/06/02 22:16:40;;;;;;;9.07;7.90;;;;;;;28.06;39.21;100762.38;21077440;28;20052;-61
2023/06/02 22:26:42;;;;;;;9.85;8.60;;;;;;;28.06;39.04;100768.00;21077193;28;20487;-62
2023/06/02 22:36:46;;;;;;;12.18;8.82;;;;;;;28.09;39.13;100781.41;21078010;28;20058;-61
2023/06/02 22:46:47;;;;;;;8.85;7.95;;;;;;;28.10;38.98;100797.13;21076041;28;20044;-62
2023/06/02 22:56:49;;;;;;;10.07;8.98;;;;;;;28.11;39.42;100804.38;21076467;28;20040;-62
2023/06/02 23:06:50;;;;;;;10.77;8.77;;;;;;;28.11;39.52;100810.84;21076166;28;20054;-61
2023/06/02 23:16:52;;;;;;;9.93;8.90;;;;;;;28.14;39.49;100826.25;21076308;28;20044;-62
2023/06/02 23:26:56;;;;;;;8.85;8.00;;;;;;;28.05;39.53;100812.19;21090860;28;20089;-61
2023/06/02 23:36:57;;;;;;;9.07;8.02;;;;;;;28.16;39.41;100856.84;21090960;28;20040;-63
2023/06/02 23:46:58;;;;;;;9.50;8.50;;;;;;;28.19;39.75;100921.72;21089251;28;20552;-62
2023/06/02 23:57:00;;;;;;;9.43;8.35;;;;;;;28.20;39.35;100943.06;21090505;28;20044;-61
